In Rescue
 
Open Full Screen Window  High Contrast Mode
Wind Gusting 00 knots
03
January 29, 2020 1:03 AM EST
Weather Information
Wind Direction
  360 °
Wind Speed
  03 kt (3 mph)
Wind Gust
  00 kt (0 mph)
Altimeter
30.13 in
Visibility
10 SM
Temperature
-02° C
28° F
Dewpoint
-06° C
21° F
Humidity
74%
Sky Condition
Overcast @ 1,900 ft
MVFR

METAR KPHN 290603Z AUTO 36003KT 10SM OVC019 M02/M06 A3013 RMK AO2

FAA Disclaimer: The data displayed is for advisory purposes only and is not to be used for flight planning or operations.